Time;durP1;ratioP1;P1;durP2;ratioP2;P2;SDS_P1;SDS_P2;PMS_P1;PMS_P2;Temp;Humidity;BMP_temperature;BMP_pressure;BME280_temperature;BME280_humidity;BME280_pressure;Samples;Min_cycle;Max_cycle;Signal;HPM_P1;HPM_P2
2022/07/05 00:00:44;;;;;;;4.90;4.57;;;;;;;23.13;48.55;95025.53;5116766;28;20226;-67
2022/07/05 00:03:11;;;;;;;5.53;4.80;;;;;;;23.10;48.64;95019.97;5117235;28;20639;-67
2022/07/05 00:05:38;;;;;;;5.53;4.82;;;;;;;23.06;47.74;95012.41;5116512;28;20188;-67
2022/07/05 00:08:06;;;;;;;4.75;4.35;;;;;;;23.00;47.29;95013.34;5116558;28;20214;-67
2022/07/05 00:10:36;;;;;;;4.97;4.47;;;;;;;22.97;47.52;95011.41;5117430;28;20190;-67
2022/07/05 00:13:03;;;;;;;4.85;4.13;;;;;;;22.96;48.19;95009.81;5116617;28;20211;-67
2022/07/05 00:15:30;;;;;;;5.30;4.78;;;;;;;22.92;48.71;95012.72;5115353;28;20188;-67
2022/07/05 00:17:57;;;;;;;5.03;4.60;;;;;;;22.89;49.20;95012.75;5116664;28;20210;-67
2022/07/05 00:20:24;;;;;;;5.18;4.78;;;;;;;22.87;49.70;95018.81;5117066;28;20184;-67
2022/07/05 00:22:51;;;;;;;4.90;4.50;;;;;;;22.85;49.70;95010.03;5116502;28;20212;-68
2022/07/05 00:25:18;;;;;;;5.03;4.63;;;;;;;22.83;49.65;95018.88;5116269;28;20207;-68
2022/07/05 00:27:47;;;;;;;5.47;4.97;;;;;;;22.81;49.57;95014.94;5115989;28;20196;-68
2022/07/05 00:30:15;;;;;;;5.65;5.03;;;;;;;22.77;49.36;95011.41;5116674;28;20313;-68
2022/07/05 00:32:42;;;;;;;5.50;4.47;;;;;;;22.74;49.30;95010.25;5116862;28;20210;-68
2022/07/05 00:35:09;;;;;;;5.35;4.85;;;;;;;22.69;49.75;95005.13;5115950;28;20192;-68
2022/07/05 00:37:36;;;;;;;5.13;4.68;;;;;;;22.66;50.21;95008.81;5116413;28;20180;-68
2022/07/05 00:40:04;;;;;;;5.60;5.05;;;;;;;22.65;50.39;95001.59;5116469;28;20199;-68
2022/07/05 00:42:31;;;;;;;5.72;4.68;;;;;;;22.63;50.23;95001.25;5116535;28;20184;-68
2022/07/05 00:44:59;;;;;;;5.20;4.80;;;;;;;22.59;50.35;94992.91;5116320;28;20199;-68
2022/07/05 00:47:26;;;;;;;5.22;4.75;;;;;;;22.58;50.34;94994.09;5116304;28;20252;-68
2022/07/05 00:49:53;;;;;;;5.40;4.90;;;;;;;22.56;50.71;94995.78;5116600;28;20194;-68
2022/07/05 00:52:20;;;;;;;5.22;4.82;;;;;;;22.53;50.55;94999.44;5115038;28;20609;-68
2022/07/05 00:54:47;;;;;;;5.72;4.97;;;;;;;22.49;50.52;94996.72;5115522;28;20206;-68
2022/07/05 00:57:14;;;;;;;5.13;4.57;;;;;;;22.47;50.56;94998.34;5115517;28;20203;-68
2022/07/05 00:59:40;;;;;;;4.72;4.40;;;;;;;22.46;50.95;94999.59;5132596;27;20196;-68
2022/07/05 01:02:09;;;;;;;5.03;4.63;;;;;;;22.45;50.82;94998.81;5132605;27;20602;-68
2022/07/05 01:04:35;;;;;;;5.43;4.93;;;;;;;22.43;50.64;95001.22;5116272;28;20199;-68
2022/07/05 01:07:03;;;;;;;7.43;4.80;;;;;;;22.42;50.83;95004.50;5116233;28;20190;-68
2022/07/05 01:09:30;;;;;;;5.47;4.85;;;;;;;22.39;51.01;95006.13;5114955;28;20195;-68
2022/07/05 01:11:57;;;;;;;5.47;4.95;;;;;;;22.35;51.14;95014.63;5115056;28;20672;-68
2022/07/05 01:14:24;;;;;;;6.38;4.75;;;;;;;22.33;51.66;95016.28;5132823;27;20208;-68
2022/07/05 01:16:53;;;;;;;5.65;5.15;;;;;;;22.27;52.07;95015.22;5115130;28;20195;-68
2022/07/05 01:19:21;;;;;;;6.40;5.18;;;;;;;22.23;51.57;95012.47;5115840;28;20202;-68
2022/07/05 01:21:49;;;;;;;6.18;5.10;;;;;;;22.21;51.35;95012.09;5114955;28;20203;-68
2022/07/05 01:24:19;;;;;;;6.97;4.65;;;;;;;22.19;51.39;95013.75;5115934;28;20180;-68
2022/07/05 01:26:48;;;;;;;5.30;4.75;;;;;;;22.18;51.73;95017.78;5114341;28;20207;-69
2022/07/05 01:29:16;;;;;;;5.28;4.88;;;;;;;22.18;51.92;95026.19;5114719;28;20200;-68
2022/07/05 01:31:43;;;;;;;5.03;4.63;;;;;;;22.14;52.10;95026.25;5114711;28;20202;-69
2022/07/05 01:34:10;;;;;;;5.38;4.88;;;;;;;22.12;51.75;95020.28;5115845;28;20180;-68
2022/07/05 01:36:37;;;;;;;4.97;4.63;;;;;;;22.07;51.69;95015.13;5114897;28;20195;-68
2022/07/05 01:39:07;;;;;;;6.82;5.00;;;;;;;22.04;51.80;95019.59;5114857;28;20192;-68
2022/07/05 01:41:35;;;;;;;5.85;4.63;;;;;;;22.02;51.88;95018.44;5115703;28;20191;-69
2022/07/05 01:44:02;;;;;;;5.10;4.60;;;;;;;22.03;52.12;95005.97;5115438;28;20184;-68
2022/07/05 01:46:32;;;;;;;5.07;4.60;;;;;;;22.02;52.06;95013.63;5115375;28;20195;-68
2022/07/05 01:49:01;;;;;;;5.22;4.72;;;;;;;22.03;52.04;95012.38;5115477;28;20183;-68
2022/07/05 01:51:40;;;;;;;5.57;4.88;;;;;;;22.01;52.10;95009.22;5131346;28;20235;-67
2022/07/05 01:54:07;;;;;;;4.88;4.38;;;;;;;21.99;52.07;95003.25;5114868;28;20211;-67
2022/07/05 01:56:37;;;;;;;8.23;4.95;;;;;;;21.96;52.51;95008.91;5115289;28;20188;-67
2022/07/05 01:59:04;;;;;;;5.50;5.00;;;;;;;21.90;52.93;95002.22;5115251;28;20202;-67
2022/07/05 02:01:35;;;;;;;5.20;4.70;;;;;;;21.84;53.55;95008.31;5114248;28;20199;-68
2022/07/05 02:04:04;;;;;;;5.53;5.00;;;;;;;21.78;53.44;95010.00;5115511;28;20194;-68
2022/07/05 02:06:32;;;;;;;6.15;5.65;;;;;;;21.75;53.66;95012.88;5115502;28;20194;-67
2022/07/05 02:08:59;;;;;;;4.90;4.50;;;;;;;21.67;53.70;95005.81;5114621;28;20230;-67
2022/07/05 02:11:25;;;;;;;5.85;5.15;;;;;;;21.63;53.60;95003.84;5114665;28;20195;-68
2022/07/05 02:13:54;;;;;;;5.47;4.93;;;;;;;21.62;54.40;95004.28;5114508;28;20218;-67
2022/07/05 02:16:23;;;;;;;5.63;4.80;;;;;;;21.62;53.77;95007.09;5132237;28;20196;-68
2022/07/05 02:18:50;;;;;;;4.78;4.38;;;;;;;21.63;53.31;95012.28;5114504;28;20229;-68
2022/07/05 02:21:17;;;;;;;7.00;4.60;;;;;;;21.62;52.62;95016.31;5115386;28;20180;-68
2022/07/05 02:23:44;;;;;;;4.68;4.25;;;;;;;21.61;52.18;95020.34;5114322;28;20600;-68
2022/07/05 02:26:11;;;;;;;4.47;4.07;;;;;;;21.58;51.64;95018.38;5114529;28;20249;-68
2022/07/05 02:28:38;;;;;;;4.72;4.10;;;;;;;21.57;51.73;95016.81;5114070;28;20210;-68
2022/07/05 02:31:06;;;;;;;4.80;4.40;;;;;;;21.56;51.84;95022.81;5114669;28;20505;-68
2022/07/05 02:33:33;;;;;;;4.68;4.30;;;;;;;21.57;51.65;95030.03;5113974;28;20647;-68
2022/07/05 02:36:06;;;;;;;4.88;4.47;;;;;;;21.54;51.94;95028.09;5114991;28;20286;-68
2022/07/05 02:38:33;;;;;;;4.63;4.22;;;;;;;21.53;51.84;95026.47;5116214;28;20199;-68
2022/07/05 02:41:00;;;;;;;5.22;4.20;;;;;;;21.52;52.12;95033.31;5118340;28;20196;-68
2022/07/05 02:43:26;;;;;;;4.90;4.55;;;;;;;21.49;51.76;95029.34;5117735;28;20199;-68
2022/07/05 02:45:53;;;;;;;5.30;4.63;;;;;;;21.46;52.61;95037.81;5134864;27;20207;-69
2022/07/05 02:48:21;;;;;;;4.97;4.40;;;;;;;21.43;52.91;95028.25;5118198;28;20191;-68
2022/07/05 02:50:48;;;;;;;5.30;4.45;;;;;;;21.41;52.98;95033.47;5134993;27;20231;-68
2022/07/05 02:53:15;;;;;;;5.28;4.78;;;;;;;21.38;52.95;95040.72;5117956;28;20208;-68
2022/07/05 02:55:41;;;;;;;5.55;4.90;;;;;;;21.34;53.01;95039.97;5117855;28;20199;-68
2022/07/05 02:58:08;;;;;;;4.90;4.45;;;;;;;21.31;53.18;95040.78;5118033;28;20196;-68
2022/07/05 03:00:35;;;;;;;5.03;4.55;;;;;;;21.33;53.61;95034.78;5117504;28;20219;-68
2022/07/05 03:03:02;;;;;;;5.43;5.00;;;;;;;21.32;54.24;95042.41;5117433;28;20206;-68
2022/07/05 03:05:30;;;;;;;5.13;4.60;;;;;;;21.26;54.57;95040.50;5117603;28;20535;-68
2022/07/05 03:07:57;;;;;;;9.63;5.03;;;;;;;21.24;54.40;95042.91;5117828;28;20203;-68
2022/07/05 03:10:25;;;;;;;4.95;4.55;;;;;;;21.25;54.57;95041.72;5118475;28;20203;-68
2022/07/05 03:12:52;;;;;;;5.00;4.60;;;;;;;21.24;53.83;95040.94;5117442;28;20216;-68
2022/07/05 03:15:18;;;;;;;5.93;5.28;;;;;;;21.20;54.72;95044.97;5118398;28;20206;-68
2022/07/05 03:17:45;;;;;;;5.78;5.28;;;;;;;21.14;54.73;95039.06;5117375;28;20282;-68
2022/07/05 03:20:12;;;;;;;6.05;5.03;;;;;;;21.11;54.32;95043.50;5118374;28;20195;-68
2022/07/05 03:22:40;;;;;;;5.68;5.07;;;;;;;21.15;54.89;95043.44;5118231;28;20187;-68
2022/07/05 03:25:07;;;;;;;5.75;5.10;;;;;;;21.14;54.32;95047.47;5117248;28;20208;-68
2022/07/05 03:27:34;;;;;;;6.20;5.45;;;;;;;21.12;53.96;95047.09;5118285;28;20184;-68
2022/07/05 03:30:01;;;;;;;5.63;5.07;;;;;;;21.10;53.95;95041.13;5117799;28;20180;-68
2022/07/05 03:32:28;;;;;;;6.50;5.75;;;;;;;21.10;54.29;95035.53;5117034;28;20202;-68
2022/07/05 03:34:54;;;;;;;5.55;5.05;;;;;;;21.10;54.29;95035.53;5117171;28;20195;-68
2022/07/05 03:37:21;;;;;;;7.82;5.35;;;;;;;21.06;55.04;95037.56;5117866;28;20211;-68
2022/07/05 03:39:49;;;;;;;6.00;4.68;;;;;;;21.00;54.74;95040.06;5117928;28;20191;-69
2022/07/05 03:42:16;;;;;;;6.85;5.05;;;;;;;20.98;55.40;95033.25;5118083;28;20191;-69
2022/07/05 03:44:43;;;;;;;6.05;5.45;;;;;;;20.95;55.86;95037.69;5117586;28;20192;-69
2022/07/05 03:47:10;;;;;;;9.25;5.80;;;;;;;20.97;55.97;95040.88;5117834;28;20195;-69
2022/07/05 03:49:36;;;;;;;6.65;5.88;;;;;;;20.97;55.87;95040.88;5117430;28;20183;-69
2022/07/05 03:52:04;;;;;;;6.30;5.10;;;;;;;20.98;55.24;95034.06;5117339;28;20239;-69
2022/07/05 03:54:30;;;;;;;5.72;5.10;;;;;;;20.98;55.40;95041.69;5117633;28;20226;-69
2022/07/05 03:56:58;;;;;;;6.70;5.57;;;;;;;20.98;55.52;95030.47;5117326;28;20188;-69
2022/07/05 03:59:25;;;;;;;6.53;5.22;;;;;;;20.97;55.23;95028.88;5116329;28;20206;-71
2022/07/05 04:01:52;;;;;;;6.38;5.18;;;;;;;20.98;55.58;95033.25;5116359;28;20199;-71
2022/07/05 04:04:19;;;;;;;6.20;4.70;;;;;;;20.97;54.62;95031.69;5117577;28;20222;-70
2022/07/05 04:06:45;;;;;;;5.00;4.55;;;;;;;20.96;54.08;95042.13;5116715;28;20207;-69
2022/07/05 04:09:12;;;;;;;5.82;5.15;;;;;;;20.97;53.97;95040.88;5117419;28;20184;-70
2022/07/05 04:11:39;;;;;;;5.43;4.93;;;;;;;20.99;54.00;95032.03;5116363;28;20191;-70
2022/07/05 04:14:09;;;;;;;5.72;4.47;;;;;;;20.99;53.77;95034.84;5117224;28;20214;-70
2022/07/05 04:16:35;;;;;;;5.70;5.20;;;;;;;21.01;53.42;95038.81;5117264;28;20184;-70
2022/07/05 04:19:02;;;;;;;5.40;4.57;;;;;;;21.04;53.60;95040.00;5117398;28;20195;-70
2022/07/05 04:21:29;;;;;;;6.43;5.10;;;;;;;21.04;53.56;95037.19;5133449;27;20195;-69
2022/07/05 04:23:56;;;;;;;5.60;4.95;;;;;;;21.04;53.21;95031.59;5133375;27;20188;-70
2022/07/05 04:26:23;;;;;;;5.97;4.32;;;;;;;21.03;52.80;95032.81;5116358;28;20202;-70
2022/07/05 04:28:50;;;;;;;6.82;4.68;;;;;;;21.04;52.60;95031.59;5115929;28;20196;-70
2022/07/05 04:31:18;;;;;;;7.25;4.93;;;;;;;21.04;53.29;95031.59;5116704;28;20202;-69
2022/07/05 04:33:45;;;;;;;7.43;4.40;;;;;;;21.06;53.52;95035.56;5116683;28;20203;-69
2022/07/05 04:36:12;;;;;;;7.15;4.40;;;;;;;21.06;53.11;95032.75;5115557;28;20203;-69
2022/07/05 04:38:39;;;;;;;6.43;4.40;;;;;;;21.10;52.91;95027.91;5116505;28;20183;-69
2022/07/05 04:41:07;;;;;;;5.47;4.45;;;;;;;21.11;52.84;95029.47;5133051;27;20596;-71
2022/07/05 04:43:34;;;;;;;6.03;4.43;;;;;;;21.10;52.99;95025.09;5116351;28;20202;-72
2022/07/05 04:46:01;;;;;;;7.95;4.70;;;;;;;21.10;53.19;95030.69;5116360;28;20210;-71
2022/07/05 04:48:29;;;;;;;5.28;4.40;;;;;;;21.08;53.40;95035.13;5115301;28;20586;-71
2022/07/05 04:50:56;;;;;;;4.90;4.50;;;;;;;21.07;53.64;95033.56;5115205;28;20230;-71
2022/07/05 04:53:23;;;;;;;4.40;4.00;;;;;;;21.10;53.66;95041.13;5116432;28;20208;-70
2022/07/05 04:55:50;;;;;;;4.32;4.03;;;;;;;21.11;53.67;95040.69;5115538;28;20202;-70
2022/07/05 04:58:16;;;;;;;4.60;3.92;;;;;;;21.10;53.40;95029.91;5116434;28;20207;-69
2022/07/05 05:00:43;;;;;;;4.82;4.43;;;;;;;21.10;53.33;95038.31;5116027;28;20184;-68
2022/07/05 05:03:10;;;;;;;4.40;4.03;;;;;;;21.09;52.55;95045.13;5116275;28;20176;-69
2022/07/05 05:05:38;;;;;;;7.07;4.53;;;;;;;21.08;52.52;95041.53;5115022;28;20206;-69
2022/07/05 05:08:05;;;;;;;6.65;4.25;;;;;;;21.10;52.23;95041.13;5116212;28;20184;-69
2022/07/05 05:10:32;;;;;;;5.15;4.65;;;;;;;21.12;52.84;95049.91;5116238;28;20184;-70
2022/07/05 05:13:00;;;;;;;4.30;3.90;;;;;;;21.16;52.27;95045.03;5115133;28;20564;-70
2022/07/05 05:15:26;;;;;;;4.57;4.18;;;;;;;21.20;52.51;95042.16;5114800;28;20191;-70
2022/07/05 05:17:53;;;;;;;4.70;4.30;;;;;;;21.25;52.20;95042.50;5116117;28;20188;-70
2022/07/05 05:20:20;;;;;;;5.15;4.30;;;;;;;21.29;52.17;95048.84;5115759;28;20191;-69
2022/07/05 05:22:48;;;;;;;4.93;4.15;;;;;;;21.32;51.80;95042.41;5132332;27;20195;-70
2022/07/05 05:25:15;;;;;;;5.18;4.05;;;;;;;21.36;51.45;95042.38;5115309;28;20278;-69
2022/07/05 05:27:43;;;;;;;4.47;3.95;;;;;;;21.37;51.42;95036.34;5115827;28;20195;-70
2022/07/05 05:30:12;;;;;;;5.93;4.50;;;;;;;21.41;51.41;95038.28;5132108;27;20191;-71
2022/07/05 05:32:38;;;;;;;4.60;4.20;;;;;;;21.41;51.39;95047.50;5115767;28;20503;-70
2022/07/05 05:35:07;;;;;;;4.90;4.40;;;;;;;21.45;51.96;95041.84;5115569;28;20204;-72
2022/07/05 05:37:46;;;;;;;6.20;4.50;;;;;;;21.49;52.03;95039.78;5115810;28;20522;-70
2022/07/05 05:40:14;;;;;;;4.97;4.47;;;;;;;21.51;51.86;95040.94;5132427;27;20227;-70
2022/07/05 05:42:41;;;;;;;4.60;4.20;;;;;;;21.54;51.92;95036.50;5116108;28;20195;-70
2022/07/05 05:45:08;;;;;;;5.80;4.32;;;;;;;21.56;52.32;95037.63;5115001;28;20195;-70
2022/07/05 05:47:43;;;;;;;4.75;4.18;;;;;;;21.59;51.66;95031.19;5114803;28;20202;-70
2022/07/05 05:50:10;;;;;;;6.47;4.65;;;;;;;21.60;51.74;95031.97;5115381;28;20190;-70
2022/07/05 05:52:37;;;;;;;6.50;4.60;;;;;;;21.63;51.91;95034.72;5115159;28;20231;-70
2022/07/05 05:55:05;;;;;;;4.78;4.38;;;;;;;21.66;52.63;95035.88;5115382;28;20748;-70
2022/07/05 05:57:34;;;;;;;4.45;4.03;;;;;;;21.68;51.83;95038.25;5114323;28;20287;-70
2022/07/05 06:00:01;;;;;;;5.20;4.32;;;;;;;21.68;52.24;95038.25;5115058;28;20196;-70
2022/07/05 06:02:28;;;;;;;4.22;3.92;;;;;;;21.72;52.22;95044.63;5114452;28;20352;-71
2022/07/05 06:04:55;;;;;;;4.43;3.92;;;;;;;21.74;51.76;95042.19;5131803;28;20199;-70
2022/07/05 06:07:22;;;;;;;5.97;4.47;;;;;;;21.77;50.37;95041.34;5114693;28;20199;-70
2022/07/05 06:09:49;;;;;;;4.40;3.90;;;;;;;21.76;49.55;95045.38;5114538;28;20207;-70
2022/07/05 06:12:15;;;;;;;4.38;3.80;;;;;;;21.75;49.88;95053.00;5114656;28;20211;-70
2022/07/05 06:14:43;;;;;;;4.53;4.00;;;;;;;21.79;50.22;95052.94;5119142;28;20523;-70
2022/07/05 06:17:10;;;;;;;4.40;3.60;;;;;;;21.85;50.05;95054.03;5119625;28;20180;-71
2022/07/05 06:19:37;;;;;;;4.55;4.10;;;;;;;21.88;50.24;95055.97;5119576;28;20184;-71
2022/07/05 06:22:04;;;;;;;4.07;3.67;;;;;;;21.90;50.05;95058.38;5119528;28;20254;-71
2022/07/05 06:24:31;;;;;;;4.57;4.18;;;;;;;21.90;50.01;95047.94;5119456;28;20550;-71
2022/07/05 06:26:58;;;;;;;6.05;5.43;;;;;;;21.94;50.00;95059.91;5119145;28;20186;-71
2022/07/05 06:29:25;;;;;;;5.68;5.18;;;;;;;21.99;50.72;95058.59;5135692;27;20192;-71
2022/07/05 06:31:53;;;;;;;5.25;4.60;;;;;;;22.01;49.31;95062.59;5118501;28;20199;-71
2022/07/05 06:34:20;;;;;;;6.25;3.83;;;;;;;22.03;49.29;95057.31;5118862;28;20677;-71
2022/07/05 06:36:47;;;;;;;5.10;4.20;;;;;;;22.03;48.64;95048.09;5118601;28;20183;-71
2022/07/05 06:39:14;;;;;;;4.40;4.00;;;;;;;22.05;48.71;95059.72;5118883;28;20545;-71
2022/07/05 06:41:41;;;;;;;4.88;3.70;;;;;;;22.08;49.38;95042.00;5119093;28;20192;-71
2022/07/05 06:44:08;;;;;;;4.32;3.88;;;;;;;22.08;50.32;95045.63;5135579;27;20188;-71
2022/07/05 06:46:35;;;;;;;5.78;4.13;;;;;;;22.10;49.87;95042.38;5118946;28;20203;-71
2022/07/05 06:49:03;;;;;;;5.40;4.03;;;;;;;22.13;50.11;95046.34;5118938;28;20191;-71
2022/07/05 06:51:29;;;;;;;4.70;4.30;;;;;;;22.18;50.30;95040.25;5118718;28;20251;-71
2022/07/05 06:53:56;;;;;;;4.85;4.40;;;;;;;22.24;50.34;95036.53;5118636;28;20220;-71
2022/07/05 06:56:24;;;;;;;5.15;4.68;;;;;;;22.30;50.82;95034.81;5118945;28;20172;-71
2022/07/05 06:58:51;;;;;;;4.57;4.18;;;;;;;22.35;51.13;95027.88;5118748;28;20194;-70
2022/07/05 07:01:18;;;;;;;5.05;4.25;;;;;;;22.41;51.24;95028.19;5118484;28;20203;-71
2022/07/05 07:03:46;;;;;;;4.63;4.22;;;;;;;22.48;51.06;95033.69;5118535;28;20188;-71
2022/07/05 07:06:15;;;;;;;4.75;3.90;;;;;;;22.52;50.96;95026.75;5117588;28;20200;-72
2022/07/05 07:11:26;;;;;;;5.50;4.18;;;;;;;22.62;50.26;95030.56;5117510;28;20517;-71
2022/07/05 07:13:53;;;;;;;5.03;4.53;;;;;;;22.66;50.17;95028.50;5134303;27;20218;-71
2022/07/05 07:16:20;;;;;;;4.60;4.13;;;;;;;22.70;50.07;95034.03;5100948;28;20203;-71
2022/07/05 07:18:46;;;;;;;5.45;4.20;;;;;;;22.70;49.27;95034.03;5117425;28;20202;-71
2022/07/05 07:21:15;;;;;;;4.75;4.13;;;;;;;22.71;49.80;95030.78;5118381;28;20199;-71
2022/07/05 07:23:42;;;;;;;4.82;4.28;;;;;;;22.73;49.67;95038.78;5117477;28;20220;-72
2022/07/05 07:26:09;;;;;;;4.63;4.20;;;;;;;22.77;49.21;95036.72;5117577;28;20538;-71
2022/07/05 07:28:36;;;;;;;5.43;4.07;;;;;;;22.82;49.79;95041.81;5134439;27;20202;-69
2022/07/05 07:31:03;;;;;;;5.15;4.28;;;;;;;22.87;50.03;95035.69;5117233;28;20640;-68
2022/07/05 07:33:31;;;;;;;4.43;3.78;;;;;;;22.94;50.03;95029.16;5117009;28;20196;-69
2022/07/05 07:35:58;;;;;;;4.97;3.85;;;;;;;22.98;49.77;95029.84;5134957;27;20196;-72
2022/07/05 07:38:27;;;;;;;5.20;3.88;;;;;;;23.02;49.58;95030.56;5117136;28;20188;-72
2022/07/05 07:40:53;;;;;;;6.43;3.70;;;;;;;23.04;48.70;95028.13;5118001;28;20245;-72
2022/07/05 07:43:20;;;;;;;6.57;3.90;;;;;;;23.06;49.24;95025.69;5117024;28;20196;-72
2022/07/05 07:45:47;;;;;;;8.70;4.22;;;;;;;23.12;50.46;95034.38;5116578;28;20187;-72
2022/07/05 07:48:14;;;;;;;6.03;4.90;;;;;;;23.18;50.64;95022.19;5117526;28;20191;-72
2022/07/05 07:50:40;;;;;;;5.95;4.93;;;;;;;23.23;48.94;95020.88;5117458;28;20195;-72
2022/07/05 07:53:07;;;;;;;5.80;4.10;;;;;;;23.23;48.47;95027.28;5117683;28;20196;-72
2022/07/05 07:55:35;;;;;;;6.13;4.20;;;;;;;23.29;50.21;95024.75;5133804;27;20234;-72
2022/07/05 07:58:03;;;;;;;5.50;3.95;;;;;;;23.39;49.12;95022.94;5117306;28;20180;-72
2022/07/05 08:00:31;;;;;;;7.20;4.07;;;;;;;23.44;49.52;95028.03;5116634;28;20246;-72
2022/07/05 08:02:58;;;;;;;4.45;4.05;;;;;;;23.47;47.80;95030.78;5116828;28;20212;-72
2022/07/05 08:05:25;;;;;;;6.90;4.05;;;;;;;23.50;48.85;95021.44;5116534;28;20312;-72
2022/07/05 08:07:52;;;;;;;5.32;3.95;;;;;;;23.53;48.84;95020.59;5116425;28;20196;-72
2022/07/05 08:10:19;;;;;;;4.38;3.85;;;;;;;23.62;46.47;95030.44;5117006;28;20199;-72
2022/07/05 08:12:47;;;;;;;4.55;4.20;;;;;;;23.65;47.78;95021.91;5116315;28;20196;-72
2022/07/05 08:15:13;;;;;;;4.32;4.03;;;;;;;23.75;50.50;95017.28;5117322;28;20227;-72
2022/07/05 08:21:30;;;;;;;5.10;3.65;;;;;;;23.86;50.68;95006.53;5116244;28;20192;-72
2022/07/05 08:23:26;;;;;;;4.60;4.20;;;;;;;24.11;49.25;95008.72;5054418;28;20276;-72
2022/07/05 08:25:53;;;;;;;6.22;5.15;;;;;;;24.18;47.94;95007.72;5037828;28;20528;-72
2022/07/05 08:28:21;;;;;;;4.57;3.78;;;;;;;24.22;49.69;95005.59;5081704;27;20216;-72
2022/07/05 08:30:47;;;;;;;4.47;4.03;;;;;;;24.31;49.34;95011.38;5115756;28;20201;-72
2022/07/05 08:33:14;;;;;;;4.82;4.43;;;;;;;24.41;49.27;95009.56;5116618;28;20188;-72
2022/07/05 08:35:41;;;;;;;5.90;5.30;;;;;;;24.48;49.46;95006.53;5115022;28;20211;-72
2022/07/05 08:38:08;;;;;;;5.63;4.97;;;;;;;24.52;48.70;95009.25;5116770;28;20228;-72
2022/07/05 08:40:38;;;;;;;7.03;4.57;;;;;;;24.52;48.83;95001.59;5115782;28;20208;-72
2022/07/05 08:43:06;;;;;;;6.03;5.45;;;;;;;24.59;47.82;95001.41;5116743;28;20245;-72
2022/07/05 08:45:35;;;;;;;6.15;5.68;;;;;;;24.72;47.93;94993.75;5116637;28;20176;-72
2022/07/05 08:48:01;;;;;;;4.82;4.43;;;;;;;24.74;48.06;94993.31;5116535;28;20188;-72
2022/07/05 08:50:28;;;;;;;5.68;5.03;;;;;;;24.78;48.47;94991.19;5132673;27;20206;-72
2022/07/05 08:52:55;;;;;;;6.70;5.75;;;;;;;24.84;48.70;94992.22;5116471;28;20198;-72
2022/07/05 08:55:23;;;;;;;5.35;4.95;;;;;;;24.92;48.88;94987.16;5116378;28;20226;-72
2022/07/05 08:57:50;;;;;;;5.72;5.20;;;;;;;25.03;48.20;94987.63;5115505;28;20191;-72
2022/07/05 09:00:17;;;;;;;6.10;5.50;;;;;;;25.15;48.05;94980.44;5116145;28;20521;-71
2022/07/05 09:02:46;;;;;;;5.90;5.25;;;;;;;25.18;47.75;94979.53;5115973;28;20642;-71
2022/07/05 09:05:14;;;;;;;5.90;5.28;;;;;;;25.25;46.42;94976.50;5132518;27;20200;-71
2022/07/05 09:07:45;;;;;;;6.00;5.50;;;;;;;25.34;47.47;94979.41;5116208;28;20245;-71
2022/07/05 09:10:12;;;;;;;7.07;5.40;;;;;;;25.37;46.19;94975.69;5116212;28;20220;-70
2022/07/05 09:12:39;;;;;;;6.43;5.82;;;;;;;25.43;48.34;94971.06;5115393;28;20191;-70
2022/07/05 09:15:07;;;;;;;7.78;5.72;;;;;;;25.58;47.64;94962.94;5115802;28;20215;-70
2022/07/05 09:17:34;;;;;;;7.78;5.65;;;;;;;25.78;45.51;94961.88;5116045;28;20198;-70
2022/07/05 09:20:10;;;;;;;6.35;5.80;;;;;;;25.79;45.80;94955.81;5115010;28;20199;-70
2022/07/05 09:22:44;;;;;;;6.43;5.75;;;;;;;25.80;46.63;94957.38;5115712;28;20207;-70
2022/07/05 09:25:20;;;;;;;7.13;5.80;;;;;;;25.85;46.95;94956.78;5115253;28;20195;-70
2022/07/05 09:27:52;;;;;;;8.30;6.25;;;;;;;26.01;47.59;94955.09;5116092;28;20211;-70
2022/07/05 09:30:32;;;;;;;5.82;5.30;;;;;;;26.15;46.57;94957.41;5116481;28;20626;-69
2022/07/05 09:33:03;;;;;;;6.20;5.38;;;;;;;26.26;46.48;94945.72;5116163;28;20179;-70
2022/07/05 09:35:31;;;;;;;6.50;5.90;;;;;;;26.37;47.76;94946.91;5115049;28;20222;-69
2022/07/05 09:37:58;;;;;;;8.15;5.53;;;;;;;26.47;45.46;94947.81;5115078;28;20199;-70
2022/07/05 09:40:25;;;;;;;6.28;5.75;;;;;;;26.58;44.47;94934.06;5114755;28;20204;-70
2022/07/05 09:42:53;;;;;;;6.45;5.85;;;;;;;26.57;46.41;94928.84;5116033;28;20198;-73
2022/07/05 09:45:24;;;;;;;6.78;5.70;;;;;;;26.61;46.21;94932.34;5115262;28;20241;-70
2022/07/05 09:47:51;;;;;;;6.93;5.88;;;;;;;26.70;44.98;94931.63;5115686;28;20218;-70
2022/07/05 09:50:37;;;;;;;7.05;6.03;;;;;;;26.79;43.71;94923.97;5114958;28;20202;-70
2022/07/05 09:53:04;;;;;;;8.70;6.50;;;;;;;26.99;42.27;94925.66;5115827;28;20599;-70
2022/07/05 09:55:31;;;;;;;7.32;5.90;;;;;;;27.08;42.65;94915.16;5132168;28;20204;-70
2022/07/05 09:57:57;;;;;;;10.50;6.60;;;;;;;27.12;44.01;94926.38;5115968;28;20195;-70
2022/07/05 10:00:25;;;;;;;7.32;6.57;;;;;;;27.26;42.49;94922.19;5115619;28;20186;-70
2022/07/05 10:02:53;;;;;;;7.00;6.30;;;;;;;27.30;43.23;94909.47;5115009;28;20203;-70
2022/07/05 10:05:21;;;;;;;6.70;6.10;;;;;;;27.38;41.57;94914.84;5115527;28;20188;-70
2022/07/05 10:07:51;;;;;;;7.38;6.47;;;;;;;27.40;43.09;94906.66;5115357;28;20200;-70
2022/07/05 10:10:19;;;;;;;7.65;6.25;;;;;;;27.49;43.02;94899.00;5115853;28;20187;-70
2022/07/05 10:12:47;;;;;;;7.75;6.80;;;;;;;27.54;42.42;94898.38;5115808;28;20226;-70
2022/07/05 10:15:15;;;;;;;6.88;6.32;;;;;;;27.54;43.78;94900.41;5114720;28;20219;-70
2022/07/05 10:17:43;;;;;;;6.45;5.93;;;;;;;27.68;43.06;94899.03;5115509;28;20523;-70
2022/07/05 10:20:15;;;;;;;7.00;6.32;;;;;;;27.77;42.28;94893.41;5115594;28;20188;-70
2022/07/05 10:22:42;;;;;;;6.97;6.03;;;;;;;27.86;42.97;94892.66;5115499;28;20291;-70
2022/07/05 10:25:11;;;;;;;8.98;6.53;;;;;;;27.88;42.45;94888.06;5115654;28;20192;-70
2022/07/05 10:27:38;;;;;;;7.75;6.07;;;;;;;28.08;42.34;94885.56;5115536;28;20188;-70
2022/07/05 10:30:06;;;;;;;6.97;6.35;;;;;;;28.16;43.84;94885.25;5115237;28;20530;-70
2022/07/05 10:32:34;;;;;;;7.10;6.53;;;;;;;28.26;41.53;94889.66;5115158;28;20176;-71
2022/07/05 10:35:02;;;;;;;7.65;7.05;;;;;;;28.31;41.11;94880.50;5114279;28;20709;-71
2022/07/05 10:37:33;;;;;;;7.93;6.53;;;;;;;28.29;41.79;94885.88;5131441;28;20587;-71
2022/07/05 10:40:00;;;;;;;7.38;6.68;;;;;;;28.35;42.00;94883.97;5114672;28;20214;-71
2022/07/05 10:42:32;;;;;;;7.60;6.65;;;;;;;28.46;42.92;94878.63;5114308;28;20604;-71
2022/07/05 10:44:59;;;;;;;7.90;6.90;;;;;;;28.38;42.86;94871.72;5114734;28;20608;-71
2022/07/05 10:47:27;;;;;;;8.20;7.40;;;;;;;28.37;41.75;94869.34;5114210;28;20203;-70
2022/07/05 10:50:05;;;;;;;7.80;6.65;;;;;;;28.50;41.40;94869.97;5114193;28;20208;-72
2022/07/05 10:52:32;;;;;;;6.93;6.32;;;;;;;28.46;39.79;94875.78;5113913;28;20227;-72
2022/07/05 10:55:21;;;;;;;6.82;6.30;;;;;;;28.50;42.27;94867.13;5114356;28;20212;-72
2022/07/05 10:58:22;;;;;;;7.20;6.50;;;;;;;28.54;41.09;94864.91;5114230;28;20223;-71
2022/07/05 11:01:11;;;;;;;7.53;6.78;;;;;;;28.58;41.34;94859.88;5118310;28;20195;-72
2022/07/05 11:03:39;;;;;;;7.10;6.50;;;;;;;28.62;41.53;94856.88;5117419;28;20196;-72
2022/07/05 11:06:07;;;;;;;7.15;6.53;;;;;;;28.63;41.65;94858.44;5118287;28;20198;-71
2022/07/05 11:09:16;;;;;;;7.55;6.95;;;;;;;28.67;42.19;94859.06;5117565;28;20184;-72
2022/07/05 11:11:44;;;;;;;8.50;6.45;;;;;;;28.67;41.04;94851.34;5117358;28;20733;-72
2022/07/05 11:14:33;;;;;;;7.35;6.65;;;;;;;28.69;38.76;94845.97;5117533;28;20192;-72
2022/07/05 11:17:25;;;;;;;6.90;6.30;;;;;;;28.76;40.14;94837.13;5117551;28;20234;-72
2022/07/05 11:20:14;;;;;;;9.05;6.38;;;;;;;28.84;40.10;94845.31;5118292;28;20196;-72
2022/07/05 11:22:43;;;;;;;7.05;6.05;;;;;;;28.98;39.03;94838.94;5117749;28;20211;-72
2022/07/05 11:25:11;;;;;;;7.25;6.50;;;;;;;28.98;40.38;94853.97;5116617;28;20207;-72
2022/07/05 11:28:06;;;;;;;7.20;6.60;;;;;;;29.11;40.38;94842.38;5117299;28;20249;-72
2022/07/05 11:30:48;;;;;;;7.00;6.40;;;;;;;29.14;39.37;94838.56;5117305;28;20257;-72
2022/07/05 11:33:37;;;;;;;6.88;6.28;;;;;;;29.12;40.08;94823.28;5117300;28;20191;-72
2022/07/05 11:36:06;;;;;;;6.65;6.03;;;;;;;29.17;40.60;94829.09;5117377;28;20211;-72
2022/07/05 11:38:33;;;;;;;7.45;6.85;;;;;;;29.18;39.73;94827.81;5117583;28;20290;-71
2022/07/05 11:41:13;;;;;;;7.10;6.40;;;;;;;29.26;38.91;94826.19;5116898;28;20206;-71
2022/07/05 11:43:42;;;;;;;7.53;6.82;;;;;;;29.23;39.80;94823.53;5117105;28;20196;-71
2022/07/05 11:46:10;;;;;;;7.68;6.63;;;;;;;29.24;41.82;94822.28;5117992;28;20229;-71